createdAt,value
2023-03-23T15:59:59.126Z,11.00
2023-03-23T16:02:27.382Z,11.50
2023-03-23T16:04:56.550Z,11.80
2023-03-23T16:07:25.018Z,12.40
2023-03-23T16:09:53.386Z,15.80
2023-03-23T16:12:21.636Z,12.10
2023-03-23T16:14:50.483Z,11.90
2023-03-23T16:17:20.078Z,11.50
2023-03-23T16:19:50.184Z,11.70
2023-03-23T16:22:18.743Z,12.10
2023-03-23T16:24:50.718Z,12.10
2023-03-23T16:27:21.670Z,11.00
2023-03-23T16:30:02.823Z,12.60
2023-03-23T16:35:03.336Z,12.60
2023-03-23T16:37:34.649Z,13.60
2023-03-23T16:40:03.652Z,13.20
2023-03-23T16:42:32.581Z,13.00
2023-03-23T16:45:01.562Z,13.00
2023-03-23T16:47:30.415Z,15.10
2023-03-23T16:50:06.843Z,14.70
2023-03-23T16:52:35.492Z,15.60
2023-03-23T16:55:15.963Z,15.70
2023-03-23T16:57:44.977Z,17.50
2023-03-23T17:00:16.842Z,17.10
2023-03-23T17:02:45.252Z,16.50
2023-03-23T17:05:14.100Z,17.40
2023-03-23T17:07:42.555Z,16.20
2023-03-23T17:10:15.877Z,15.80
2023-03-23T17:12:45.977Z,16.70
2023-03-23T17:15:15.414Z,16.60
2023-03-23T17:17:45.957Z,17.30
2023-03-23T17:20:14.136Z,18.70
2023-03-23T17:22:42.329Z,25.20
2023-03-23T17:25:12.187Z,18.30
2023-03-23T17:27:41.173Z,17.90
2023-03-23T17:30:15.601Z,18.60
2023-03-23T17:32:49.598Z,16.70
2023-03-23T17:35:17.897Z,18.00
2023-03-23T17:37:49.033Z,17.80
2023-03-23T17:40:17.410Z,16.90
2023-03-23T17:42:45.578Z,16.80
2023-03-23T17:45:15.524Z,18.20
2023-03-23T17:47:44.197Z,18.30
2023-03-23T17:50:18.883Z,17.90
2023-03-23T17:52:47.420Z,18.40
2023-03-23T17:55:15.995Z,18.30
2023-03-23T17:57:45.633Z,17.80
2023-03-23T18:00:15.502Z,19.90
2023-03-23T18:02:44.153Z,18.50
2023-03-23T18:05:12.858Z,18.80
2023-03-23T18:07:41.454Z,18.90
2023-03-23T18:10:13.243Z,19.80
2023-03-23T18:12:41.856Z,18.10
2023-03-23T18:15:10.627Z,19.20
2023-03-23T18:17:38.977Z,19.40
2023-03-23T18:20:07.756Z,18.70
2023-03-23T18:22:37.188Z,17.90
2023-03-23T18:25:06.146Z,18.00
2023-03-23T18:27:34.945Z,19.40
2023-03-23T18:30:04.052Z,17.40
2023-03-23T18:32:38.456Z,20.70
2023-03-23T18:35:08.104Z,19.10
2023-03-23T18:37:37.078Z,19.40
2023-03-23T18:40:07.298Z,18.40
2023-03-23T18:42:36.989Z,20.60
2023-03-23T18:45:05.968Z,18.40
2023-03-23T18:47:34.328Z,19.70
2023-03-23T18:50:02.561Z,19.50
2023-03-23T18:52:32.085Z,19.40
2023-03-23T18:55:00.850Z,18.70
2023-03-23T18:57:29.147Z,18.30
2023-03-23T18:59:57.570Z,19.10
2023-03-23T19:02:25.982Z,19.90
2023-03-23T19:04:54.230Z,20.10
2023-03-23T19:07:22.388Z,19.80
2023-03-23T19:09:50.718Z,19.60
2023-03-23T19:12:23.346Z,20.60
2023-03-23T19:14:52.653Z,21.10
2023-03-23T19:17:20.836Z,19.30
2023-03-23T19:19:52.629Z,20.70
2023-03-23T19:22:21.118Z,21.10
2023-03-23T19:24:49.216Z,20.40
2023-03-23T19:27:21.027Z,21.30
2023-03-23T19:29:49.976Z,22.10
2023-03-23T19:32:18.702Z,21.50
2023-03-23T19:34:51.056Z,20.40
2023-03-23T19:37:20.035Z,21.80
2023-03-23T19:39:48.319Z,24.10
2023-03-23T19:42:18.573Z,21.80
2023-03-23T19:44:47.459Z,22.80
2023-03-23T19:47:16.480Z,22.30
2023-03-23T19:49:45.697Z,23.50
2023-03-23T19:52:15.068Z,24.60
2023-03-23T19:54:46.067Z,23.60
2023-03-23T19:57:14.759Z,22.30
2023-03-23T19:59:44.319Z,23.90
2023-03-23T20:02:12.749Z,23.50
2023-03-23T20:04:41.521Z,23.60
2023-03-23T20:07:10.237Z,22.90
2023-03-23T20:09:38.956Z,22.40
2023-03-23T20:12:10.786Z,23.60
2023-03-23T20:14:45.133Z,23.20
2023-03-23T20:17:14.729Z,23.90
2023-03-23T20:22:14.637Z,24.90
2023-03-23T20:24:43.504Z,24.20
2023-03-23T20:27:16.621Z,24.70
2023-03-23T20:29:45.105Z,25.10
2023-03-23T20:32:17.661Z,25.80
2023-03-23T20:34:49.374Z,24.40
2023-03-23T20:37:20.921Z,25.70
2023-03-23T20:39:50.151Z,25.40
2023-03-23T20:42:18.337Z,24.90
2023-03-23T20:44:47.485Z,27.80
2023-03-23T20:47:18.113Z,25.80
2023-03-23T20:49:53.308Z,25.60
2023-03-23T20:52:23.418Z,24.70
2023-03-23T20:54:55.171Z,26.10
2023-03-23T20:57:23.479Z,25.60
2023-03-23T20:59:55.520Z,25.80
2023-03-23T21:02:26.088Z,27.00
2023-03-23T21:04:58.401Z,26.10
2023-03-23T21:07:27.514Z,25.10
2023-03-23T21:09:56.298Z,27.40
2023-03-23T21:12:32.096Z,25.70
2023-03-23T21:15:01.699Z,26.80
2023-03-23T21:17:30.292Z,26.90
2023-03-23T21:20:08.550Z,26.20
2023-03-23T21:22:36.764Z,26.50
2023-03-23T21:25:05.280Z,27.00
2023-03-23T21:27:33.580Z,26.00
2023-03-23T21:30:03.427Z,25.50
2023-03-23T21:32:32.996Z,25.40
2023-03-23T21:35:03.257Z,26.00
2023-03-23T21:37:31.558Z,27.20
2023-03-23T21:40:01.303Z,26.90
2023-03-23T21:42:32.303Z,27.00
2023-03-23T21:45:03.277Z,26.10
2023-03-23T21:47:32.776Z,26.40
2023-03-23T21:50:02.149Z,27.50
2023-03-23T21:52:32.166Z,26.90
2023-03-23T21:55:02.676Z,26.70
2023-03-23T21:57:31.947Z,26.90
2023-03-23T22:00:14.656Z,26.50
2023-03-23T22:02:45.182Z,27.00
2023-03-23T22:05:13.444Z,27.40
2023-03-23T22:07:46.452Z,27.00
2023-03-23T22:10:15.644Z,25.90
2023-03-23T22:12:43.887Z,25.90
2023-03-23T22:15:18.275Z,25.20
2023-03-23T22:17:47.404Z,25.50
2023-03-23T22:20:15.652Z,25.60
2023-03-23T22:22:46.455Z,26.20
2023-03-23T22:25:14.843Z,25.20
2023-03-23T22:27:43.454Z,25.70
2023-03-23T22:30:12.558Z,25.10
2023-03-23T22:32:42.271Z,25.30
2023-03-23T22:35:12.737Z,24.80
2023-03-23T22:37:41.281Z,26.30
2023-03-23T22:40:11.555Z,23.30
2023-03-23T22:42:40.917Z,22.70
2023-03-23T22:45:09.863Z,24.90
2023-03-23T22:47:38.824Z,25.40
2023-03-23T22:50:08.322Z,23.00
2023-03-23T22:52:37.044Z,23.00
2023-03-23T22:55:08.609Z,22.40
2023-03-23T22:57:37.765Z,23.90
2023-03-23T23:00:14.619Z,24.50
2023-03-23T23:02:44.000Z,24.30
2023-03-23T23:05:12.505Z,22.40
2023-03-23T23:07:42.905Z,23.40
2023-03-23T23:10:11.983Z,23.40
2023-03-23T23:12:42.681Z,24.30
2023-03-23T23:15:20.421Z,23.10
2023-03-23T23:17:48.811Z,21.50
2023-03-23T23:20:18.984Z,22.50
2023-03-23T23:22:49.071Z,21.90
2023-03-23T23:25:17.521Z,21.90
2023-03-23T23:27:46.092Z,22.40
2023-03-23T23:30:14.419Z,23.20
2023-03-23T23:32:52.189Z,20.70
2023-03-23T23:35:26.450Z,20.80
2023-03-23T23:37:55.748Z,21.20
2023-03-23T23:40:24.065Z,21.50
2023-03-23T23:42:53.729Z,20.40
2023-03-23T23:45:22.666Z,20.40
2023-03-23T23:47:57.904Z,19.40
2023-03-23T23:50:26.402Z,19.40
2023-03-23T23:52:54.863Z,18.80
2023-03-23T23:55:23.297Z,21.20
2023-03-23T23:57:51.957Z,19.90
